sensor_id;sensor_type;location;lat;lon;timestamp;P1;durP1;ratioP1;P2;durP2;ratioP2
18194;SDS011;9223;50.988;3.162;2023-07-29T00:02:16;1.83;;;1.08;;
18194;SDS011;9223;50.988;3.162;2023-07-29T00:08:19;1.45;;;1.17;;
18194;SDS011;9223;50.988;3.162;2023-07-29T00:14:23;1.80;;;1.23;;
18194;SDS011;9223;50.988;3.162;2023-07-29T00:20:28;2.10;;;1.50;;
18194;SDS011;9223;50.988;3.162;2023-07-29T00:26:31;2.33;;;1.50;;
18194;SDS011;9223;50.988;3.162;2023-07-29T00:32:35;2.22;;;1.77;;
18194;SDS011;9223;50.988;3.162;2023-07-29T00:38:40;2.53;;;2.03;;
18194;SDS011;9223;50.988;3.162;2023-07-29T00:44:44;2.80;;;2.05;;
18194;SDS011;9223;50.988;3.162;2023-07-29T00:50:47;3.72;;;1.92;;
18194;SDS011;9223;50.988;3.162;2023-07-29T00:56:52;2.83;;;2.00;;
18194;SDS011;9223;50.988;3.162;2023-07-29T01:02:56;2.17;;;1.75;;
18194;SDS011;9223;50.988;3.162;2023-07-29T01:09:01;2.92;;;1.95;;
18194;SDS011;9223;50.988;3.162;2023-07-29T01:15:09;3.00;;;1.83;;
18194;SDS011;9223;50.988;3.162;2023-07-29T01:21:13;3.65;;;1.67;;
18194;SDS011;9223;50.988;3.162;2023-07-29T01:27:18;2.15;;;1.95;;
18194;SDS011;9223;50.988;3.162;2023-07-29T01:33:23;2.40;;;1.75;;
18194;SDS011;9223;50.988;3.162;2023-07-29T01:39:29;3.90;;;1.45;;
18194;SDS011;9223;50.988;3.162;2023-07-29T01:45:37;3.80;;;1.60;;
18194;SDS011;9223;50.988;3.162;2023-07-29T01:51:42;2.13;;;1.10;;
18194;SDS011;9223;50.988;3.162;2023-07-29T01:57:46;1.60;;;1.10;;
18194;SDS011;9223;50.988;3.162;2023-07-29T02:03:51;1.30;;;1.00;;
18194;SDS011;9223;50.988;3.162;2023-07-29T02:09:57;3.28;;;1.88;;
18194;SDS011;9223;50.988;3.162;2023-07-29T02:16:00;3.28;;;1.80;;
18194;SDS011;9223;50.988;3.162;2023-07-29T02:22:05;5.60;;;1.83;;
18194;SDS011;9223;50.988;3.162;2023-07-29T02:28:09;2.42;;;1.73;;
18194;SDS011;9223;50.988;3.162;2023-07-29T02:34:13;2.95;;;2.00;;
18194;SDS011;9223;50.988;3.162;2023-07-29T02:40:18;1.80;;;1.45;;
18194;SDS011;9223;50.988;3.162;2023-07-29T02:46:22;2.55;;;1.60;;
18194;SDS011;9223;50.988;3.162;2023-07-29T02:52:25;4.30;;;1.92;;
18194;SDS011;9223;50.988;3.162;2023-07-29T02:58:30;2.80;;;1.65;;
18194;SDS011;9223;50.988;3.162;2023-07-29T03:04:34;3.08;;;1.92;;
18194;SDS011;9223;50.988;3.162;2023-07-29T03:10:37;3.25;;;1.80;;
18194;SDS011;9223;50.988;3.162;2023-07-29T03:16:42;2.30;;;1.80;;
18194;SDS011;9223;50.988;3.162;2023-07-29T03:22:46;1.67;;;1.55;;
18194;SDS011;9223;50.988;3.162;2023-07-29T03:28:49;2.83;;;1.55;;
18194;SDS011;9223;50.988;3.162;2023-07-29T03:34:54;2.45;;;1.92;;
18194;SDS011;9223;50.988;3.162;2023-07-29T03:40:58;3.10;;;1.60;;
18194;SDS011;9223;50.988;3.162;2023-07-29T03:47:03;3.33;;;2.20;;
18194;SDS011;9223;50.988;3.162;2023-07-29T03:53:08;4.13;;;1.63;;
18194;SDS011;9223;50.988;3.162;2023-07-29T03:59:12;3.08;;;1.77;;
18194;SDS011;9223;50.988;3.162;2023-07-29T04:05:15;2.22;;;1.60;;
18194;SDS011;9223;50.988;3.162;2023-07-29T04:11:20;2.47;;;1.85;;
18194;SDS011;9223;50.988;3.162;2023-07-29T04:17:24;2.70;;;1.73;;
18194;SDS011;9223;50.988;3.162;2023-07-29T04:23:28;2.35;;;2.15;;
18194;SDS011;9223;50.988;3.162;2023-07-29T04:29:33;3.55;;;2.08;;
18194;SDS011;9223;50.988;3.162;2023-07-29T04:35:37;3.95;;;2.30;;
18194;SDS011;9223;50.988;3.162;2023-07-29T04:41:41;3.78;;;2.25;;
18194;SDS011;9223;50.988;3.162;2023-07-29T04:47:46;2.70;;;2.15;;
18194;SDS011;9223;50.988;3.162;2023-07-29T04:53:49;4.90;;;2.42;;
18194;SDS011;9223;50.988;3.162;2023-07-29T04:59:53;2.75;;;1.98;;
18194;SDS011;9223;50.988;3.162;2023-07-29T05:05:58;2.85;;;1.85;;
18194;SDS011;9223;50.988;3.162;2023-07-29T05:12:02;2.75;;;2.00;;
18194;SDS011;9223;50.988;3.162;2023-07-29T05:18:05;2.78;;;1.80;;
18194;SDS011;9223;50.988;3.162;2023-07-29T05:24:10;2.95;;;1.50;;
18194;SDS011;9223;50.988;3.162;2023-07-29T05:30:13;3.25;;;1.80;;
18194;SDS011;9223;50.988;3.162;2023-07-29T05:36:17;2.55;;;1.70;;
18194;SDS011;9223;50.988;3.162;2023-07-29T05:42:22;1.10;;;0.90;;
18194;SDS011;9223;50.988;3.162;2023-07-29T05:48:25;1.38;;;0.90;;
18194;SDS011;9223;50.988;3.162;2023-07-29T05:54:29;1.38;;;1.00;;
18194;SDS011;9223;50.988;3.162;2023-07-29T06:00:34;1.15;;;0.95;;
18194;SDS011;9223;50.988;3.162;2023-07-29T06:06:37;1.88;;;1.15;;
18194;SDS011;9223;50.988;3.162;2023-07-29T06:12:41;0.77;;;0.75;;
18194;SDS011;9223;50.988;3.162;2023-07-29T06:18:45;1.10;;;0.85;;
18194;SDS011;9223;50.988;3.162;2023-07-29T06:24:49;1.60;;;0.80;;
18194;SDS011;9223;50.988;3.162;2023-07-29T06:30:52;1.05;;;0.82;;
18194;SDS011;9223;50.988;3.162;2023-07-29T06:36:57;1.13;;;1.02;;
18194;SDS011;9223;50.988;3.162;2023-07-29T06:43:01;1.38;;;0.85;;
18194;SDS011;9223;50.988;3.162;2023-07-29T06:49:04;1.20;;;1.10;;
18194;SDS011;9223;50.988;3.162;2023-07-29T06:55:10;1.38;;;0.88;;
18194;SDS011;9223;50.988;3.162;2023-07-29T07:01:13;1.27;;;1.00;;
18194;SDS011;9223;50.988;3.162;2023-07-29T07:07:16;1.30;;;1.10;;
18194;SDS011;9223;50.988;3.162;2023-07-29T07:13:21;1.10;;;1.00;;
18194;SDS011;9223;50.988;3.162;2023-07-29T07:19:25;0.98;;;0.90;;
18194;SDS011;9223;50.988;3.162;2023-07-29T07:25:28;2.95;;;1.20;;
18194;SDS011;9223;50.988;3.162;2023-07-29T07:31:33;1.00;;;0.70;;
18194;SDS011;9223;50.988;3.162;2023-07-29T07:37:37;1.00;;;0.80;;
18194;SDS011;9223;50.988;3.162;2023-07-29T07:43:41;1.38;;;0.85;;
18194;SDS011;9223;50.988;3.162;2023-07-29T07:49:46;0.82;;;0.70;;
18194;SDS011;9223;50.988;3.162;2023-07-29T07:55:50;0.77;;;0.77;;
18194;SDS011;9223;50.988;3.162;2023-07-29T08:01:54;0.90;;;0.77;;
18194;SDS011;9223;50.988;3.162;2023-07-29T08:07:59;1.02;;;0.90;;
18194;SDS011;9223;50.988;3.162;2023-07-29T08:14:03;1.67;;;1.05;;
18194;SDS011;9223;50.988;3.162;2023-07-29T08:20:06;1.35;;;1.17;;
18194;SDS011;9223;50.988;3.162;2023-07-29T08:26:12;2.33;;;1.30;;
18194;SDS011;9223;50.988;3.162;2023-07-29T08:32:15;1.85;;;1.48;;
18194;SDS011;9223;50.988;3.162;2023-07-29T08:38:19;2.97;;;2.20;;
18194;SDS011;9223;50.988;3.162;2023-07-29T08:44:25;2.60;;;2.13;;
18194;SDS011;9223;50.988;3.162;2023-07-29T08:50:29;3.05;;;1.65;;
18194;SDS011;9223;50.988;3.162;2023-07-29T08:56:35;1.33;;;1.20;;
18194;SDS011;9223;50.988;3.162;2023-07-29T09:02:41;1.40;;;1.00;;
18194;SDS011;9223;50.988;3.162;2023-07-29T09:08:44;5.63;;;1.35;;
18194;SDS011;9223;50.988;3.162;2023-07-29T09:14:51;1.42;;;1.20;;
18194;SDS011;9223;50.988;3.162;2023-07-29T09:20:58;1.25;;;1.15;;
18194;SDS011;9223;50.988;3.162;2023-07-29T09:27:02;1.45;;;1.20;;
18194;SDS011;9223;50.988;3.162;2023-07-29T09:33:06;2.00;;;1.00;;
18194;SDS011;9223;50.988;3.162;2023-07-29T09:39:11;1.40;;;1.15;;
18194;SDS011;9223;50.988;3.162;2023-07-29T09:45:19;2.33;;;1.02;;
18194;SDS011;9223;50.988;3.162;2023-07-29T09:51:23;0.95;;;0.90;;
18194;SDS011;9223;50.988;3.162;2023-07-29T09:57:28;2.45;;;1.08;;
18194;SDS011;9223;50.988;3.162;2023-07-29T10:03:32;1.65;;;0.90;;
18194;SDS011;9223;50.988;3.162;2023-07-29T10:09:47;1.00;;;0.90;;
18194;SDS011;9223;50.988;3.162;2023-07-29T10:15:51;2.67;;;1.50;;
18194;SDS011;9223;50.988;3.162;2023-07-29T10:21:58;2.13;;;1.92;;
18194;SDS011;9223;50.988;3.162;2023-07-29T10:28:04;1.67;;;1.58;;
18194;SDS011;9223;50.988;3.162;2023-07-29T10:34:08;3.10;;;1.52;;
18194;SDS011;9223;50.988;3.162;2023-07-29T10:40:12;1.77;;;1.65;;
18194;SDS011;9223;50.988;3.162;2023-07-29T10:46:19;2.38;;;1.48;;
18194;SDS011;9223;50.988;3.162;2023-07-29T10:52:30;2.45;;;1.30;;
18194;SDS011;9223;50.988;3.162;2023-07-29T10:58:34;1.75;;;1.40;;
18194;SDS011;9223;50.988;3.162;2023-07-29T11:04:45;2.58;;;1.50;;
18194;SDS011;9223;50.988;3.162;2023-07-29T11:11:00;3.33;;;1.40;;
18194;SDS011;9223;50.988;3.162;2023-07-29T11:17:04;2.17;;;1.40;;
18194;SDS011;9223;50.988;3.162;2023-07-29T11:23:13;1.48;;;1.38;;
18194;SDS011;9223;50.988;3.162;2023-07-29T11:29:16;2.55;;;1.30;;
18194;SDS011;9223;50.988;3.162;2023-07-29T11:35:20;1.40;;;1.10;;
18194;SDS011;9223;50.988;3.162;2023-07-29T11:41:25;1.55;;;1.30;;
18194;SDS011;9223;50.988;3.162;2023-07-29T11:47:28;2.33;;;1.13;;
18194;SDS011;9223;50.988;3.162;2023-07-29T11:53:32;2.60;;;1.20;;
18194;SDS011;9223;50.988;3.162;2023-07-29T11:59:37;1.65;;;1.20;;
18194;SDS011;9223;50.988;3.162;2023-07-29T12:05:40;1.35;;;1.17;;
18194;SDS011;9223;50.988;3.162;2023-07-29T12:11:44;1.85;;;1.17;;
18194;SDS011;9223;50.988;3.162;2023-07-29T12:17:52;1.40;;;1.30;;
18194;SDS011;9223;50.988;3.162;2023-07-29T12:23:56;1.25;;;1.15;;
18194;SDS011;9223;50.988;3.162;2023-07-29T12:30:01;1.27;;;0.77;;
18194;SDS011;9223;50.988;3.162;2023-07-29T12:36:07;1.20;;;1.10;;
18194;SDS011;9223;50.988;3.162;2023-07-29T12:42:12;1.30;;;1.05;;
18194;SDS011;9223;50.988;3.162;2023-07-29T12:48:15;1.10;;;1.00;;
18194;SDS011;9223;50.988;3.162;2023-07-29T12:54:23;1.02;;;0.88;;
18194;SDS011;9223;50.988;3.162;2023-07-29T13:00:26;1.23;;;1.13;;
18194;SDS011;9223;50.988;3.162;2023-07-29T13:06:30;1.70;;;1.13;;
18194;SDS011;9223;50.988;3.162;2023-07-29T13:12:35;1.08;;;0.93;;
18194;SDS011;9223;50.988;3.162;2023-07-29T13:18:38;1.30;;;1.00;;
18194;SDS011;9223;50.988;3.162;2023-07-29T13:24:42;0.80;;;0.80;;
18194;SDS011;9223;50.988;3.162;2023-07-29T13:30:46;1.10;;;0.82;;
18194;SDS011;9223;50.988;3.162;2023-07-29T13:36:50;0.80;;;0.80;;
18194;SDS011;9223;50.988;3.162;2023-07-29T13:42:53;0.65;;;0.60;;
18194;SDS011;9223;50.988;3.162;2023-07-29T13:48:58;3.63;;;0.80;;
18194;SDS011;9223;50.988;3.162;2023-07-29T13:55:03;0.80;;;0.60;;
18194;SDS011;9223;50.988;3.162;2023-07-29T14:01:06;1.02;;;0.70;;
18194;SDS011;9223;50.988;3.162;2023-07-29T14:07:11;1.52;;;0.70;;
18194;SDS011;9223;50.988;3.162;2023-07-29T14:13:15;1.20;;;0.88;;
18194;SDS011;9223;50.988;3.162;2023-07-29T14:19:18;1.30;;;0.90;;
18194;SDS011;9223;50.988;3.162;2023-07-29T14:25:23;1.20;;;1.10;;
18194;SDS011;9223;50.988;3.162;2023-07-29T14:31:27;1.17;;;0.95;;
18194;SDS011;9223;50.988;3.162;2023-07-29T14:37:31;1.00;;;0.90;;
18194;SDS011;9223;50.988;3.162;2023-07-29T14:43:36;2.20;;;0.80;;
18194;SDS011;9223;50.988;3.162;2023-07-29T14:49:39;1.95;;;1.08;;
18194;SDS011;9223;50.988;3.162;2023-07-29T14:55:43;1.90;;;1.20;;
18194;SDS011;9223;50.988;3.162;2023-07-29T15:01:48;0.95;;;0.80;;
18194;SDS011;9223;50.988;3.162;2023-07-29T15:07:51;1.98;;;0.93;;
18194;SDS011;9223;50.988;3.162;2023-07-29T15:13:55;2.92;;;1.30;;
18194;SDS011;9223;50.988;3.162;2023-07-29T15:19:59;2.05;;;1.20;;
18194;SDS011;9223;50.988;3.162;2023-07-29T15:26:03;2.28;;;1.25;;
18194;SDS011;9223;50.988;3.162;2023-07-29T15:32:07;2.50;;;1.25;;
18194;SDS011;9223;50.988;3.162;2023-07-29T15:38:12;2.17;;;1.40;;
18194;SDS011;9223;50.988;3.162;2023-07-29T15:44:15;1.60;;;1.42;;
18194;SDS011;9223;50.988;3.162;2023-07-29T15:50:19;4.25;;;1.45;;
18194;SDS011;9223;50.988;3.162;2023-07-29T15:56:24;4.07;;;1.45;;
18194;SDS011;9223;50.988;3.162;2023-07-29T16:02:30;3.90;;;1.55;;
18194;SDS011;9223;50.988;3.162;2023-07-29T16:08:33;4.55;;;1.42;;
18194;SDS011;9223;50.988;3.162;2023-07-29T16:14:38;3.70;;;1.60;;
18194;SDS011;9223;50.988;3.162;2023-07-29T16:20:42;6.07;;;1.40;;
18194;SDS011;9223;50.988;3.162;2023-07-29T16:26:47;3.08;;;1.40;;
18194;SDS011;9223;50.988;3.162;2023-07-29T16:32:52;3.80;;;1.60;;
18194;SDS011;9223;50.988;3.162;2023-07-29T16:38:56;2.90;;;1.40;;
18194;SDS011;9223;50.988;3.162;2023-07-29T16:45:00;4.57;;;1.77;;
18194;SDS011;9223;50.988;3.162;2023-07-29T16:51:05;3.17;;;1.23;;
18194;SDS011;9223;50.988;3.162;2023-07-29T16:57:10;4.57;;;1.50;;
18194;SDS011;9223;50.988;3.162;2023-07-29T17:03:14;2.08;;;1.00;;
18194;SDS011;9223;50.988;3.162;2023-07-29T17:09:21;2.30;;;1.10;;
18194;SDS011;9223;50.988;3.162;2023-07-29T17:15:25;2.78;;;1.17;;
18194;SDS011;9223;50.988;3.162;2023-07-29T17:21:29;3.38;;;1.42;;
18194;SDS011;9223;50.988;3.162;2023-07-29T17:27:34;2.60;;;1.50;;
18194;SDS011;9223;50.988;3.162;2023-07-29T17:33:37;4.15;;;1.25;;
18194;SDS011;9223;50.988;3.162;2023-07-29T17:39:41;2.33;;;1.00;;
18194;SDS011;9223;50.988;3.162;2023-07-29T17:45:46;1.42;;;1.13;;
18194;SDS011;9223;50.988;3.162;2023-07-29T17:51:49;3.28;;;1.58;;
18194;SDS011;9223;50.988;3.162;2023-07-29T17:57:53;6.20;;;1.50;;
18194;SDS011;9223;50.988;3.162;2023-07-29T18:04:00;3.35;;;1.20;;
18194;SDS011;9223;50.988;3.162;2023-07-29T18:10:04;2.30;;;0.90;;
18194;SDS011;9223;50.988;3.162;2023-07-29T18:16:08;2.88;;;1.58;;
18194;SDS011;9223;50.988;3.162;2023-07-29T18:22:15;3.72;;;1.20;;
18194;SDS011;9223;50.988;3.162;2023-07-29T18:28:19;4.13;;;1.35;;
18194;SDS011;9223;50.988;3.162;2023-07-29T18:34:23;2.47;;;1.40;;
18194;SDS011;9223;50.988;3.162;2023-07-29T18:40:28;2.03;;;1.40;;
18194;SDS011;9223;50.988;3.162;2023-07-29T18:46:31;3.70;;;1.05;;
18194;SDS011;9223;50.988;3.162;2023-07-29T18:52:35;4.88;;;1.08;;
18194;SDS011;9223;50.988;3.162;2023-07-29T18:58:40;1.75;;;1.02;;
18194;SDS011;9223;50.988;3.162;2023-07-29T19:04:44;2.15;;;1.20;;
18194;SDS011;9223;50.988;3.162;2023-07-29T19:10:49;1.95;;;1.08;;
18194;SDS011;9223;50.988;3.162;2023-07-29T19:16:55;3.63;;;1.48;;
18194;SDS011;9223;50.988;3.162;2023-07-29T19:22:58;4.28;;;1.25;;
18194;SDS011;9223;50.988;3.162;2023-07-29T19:29:02;2.72;;;1.33;;
18194;SDS011;9223;50.988;3.162;2023-07-29T19:35:07;3.90;;;1.42;;
18194;SDS011;9223;50.988;3.162;2023-07-29T19:41:11;5.78;;;1.80;;
18194;SDS011;9223;50.988;3.162;2023-07-29T19:47:15;3.72;;;1.33;;
18194;SDS011;9223;50.988;3.162;2023-07-29T19:53:21;5.57;;;2.00;;
18194;SDS011;9223;50.988;3.162;2023-07-29T19:59:24;3.60;;;1.67;;
18194;SDS011;9223;50.988;3.162;2023-07-29T20:05:42;4.38;;;1.35;;
18194;SDS011;9223;50.988;3.162;2023-07-29T20:11:47;3.88;;;1.40;;
18194;SDS011;9223;50.988;3.162;2023-07-29T20:17:52;3.83;;;2.05;;
18194;SDS011;9223;50.988;3.162;2023-07-29T20:23:56;3.28;;;1.63;;
18194;SDS011;9223;50.988;3.162;2023-07-29T20:30:01;3.55;;;1.55;;
18194;SDS011;9223;50.988;3.162;2023-07-29T20:36:05;4.68;;;1.83;;
18194;SDS011;9223;50.988;3.162;2023-07-29T20:42:08;6.60;;;1.75;;
18194;SDS011;9223;50.988;3.162;2023-07-29T20:48:13;2.95;;;1.60;;
18194;SDS011;9223;50.988;3.162;2023-07-29T20:54:17;6.72;;;2.08;;
18194;SDS011;9223;50.988;3.162;2023-07-29T21:00:21;5.00;;;1.98;;
18194;SDS011;9223;50.988;3.162;2023-07-29T21:06:26;2.47;;;1.50;;
18194;SDS011;9223;50.988;3.162;2023-07-29T21:12:29;5.65;;;1.95;;
18194;SDS011;9223;50.988;3.162;2023-07-29T21:18:33;4.15;;;2.25;;
18194;SDS011;9223;50.988;3.162;2023-07-29T21:24:38;4.00;;;1.90;;
18194;SDS011;9223;50.988;3.162;2023-07-29T21:30:43;4.18;;;1.88;;
18194;SDS011;9223;50.988;3.162;2023-07-29T21:36:47;3.40;;;1.50;;
18194;SDS011;9223;50.988;3.162;2023-07-29T21:42:51;4.38;;;1.70;;
18194;SDS011;9223;50.988;3.162;2023-07-29T21:48:55;3.72;;;1.52;;
18194;SDS011;9223;50.988;3.162;2023-07-29T21:54:58;2.80;;;1.45;;
18194;SDS011;9223;50.988;3.162;2023-07-29T22:01:03;4.45;;;1.73;;
18194;SDS011;9223;50.988;3.162;2023-07-29T22:07:08;5.80;;;1.80;;
18194;SDS011;9223;50.988;3.162;2023-07-29T22:13:11;9.48;;;2.25;;
18194;SDS011;9223;50.988;3.162;2023-07-29T22:19:16;4.15;;;1.50;;
18194;SDS011;9223;50.988;3.162;2023-07-29T22:25:20;7.80;;;2.20;;
18194;SDS011;9223;50.988;3.162;2023-07-29T22:31:24;9.95;;;2.45;;
18194;SDS011;9223;50.988;3.162;2023-07-29T22:37:30;6.68;;;2.40;;
18194;SDS011;9223;50.988;3.162;2023-07-29T22:43:33;6.60;;;1.83;;
18194;SDS011;9223;50.988;3.162;2023-07-29T22:49:37;4.85;;;2.08;;
18194;SDS011;9223;50.988;3.162;2023-07-29T22:55:42;5.18;;;1.60;;
18194;SDS011;9223;50.988;3.162;2023-07-29T23:01:46;4.65;;;1.88;;
18194;SDS011;9223;50.988;3.162;2023-07-29T23:07:49;5.50;;;1.80;;
18194;SDS011;9223;50.988;3.162;2023-07-29T23:13:54;5.63;;;1.98;;
18194;SDS011;9223;50.988;3.162;2023-07-29T23:19:57;8.52;;;2.30;;
18194;SDS011;9223;50.988;3.162;2023-07-29T23:26:01;5.13;;;1.60;;
18194;SDS011;9223;50.988;3.162;2023-07-29T23:32:06;5.13;;;1.90;;
18194;SDS011;9223;50.988;3.162;2023-07-29T23:38:10;6.28;;;1.77;;
18194;SDS011;9223;50.988;3.162;2023-07-29T23:44:14;10.68;;;1.67;;
18194;SDS011;9223;50.988;3.162;2023-07-29T23:50:19;8.25;;;1.70;;
18194;SDS011;9223;50.988;3.162;2023-07-29T23:56:22;8.20;;;1.88;;
